Time;durP1;ratioP1;P1;durP2;ratioP2;P2;SDS_P1;SDS_P2;PMS_P1;PMS_P2;Temp;Humidity;BMP_temperature;BMP_pressure;BME280_temperature;BME280_humidity;BME280_pressure;Samples;Min_cycle;Max_cycle;Signal;HPM_P1;HPM_P2
2023/08/02 00:02:01;;;;;;;3.92;2.17;;;;;;;16.36;100.00;100068.84;5037060;28;20032;-73
2023/08/02 00:04:26;;;;;;;3.90;2.33;;;;;;;16.34;100.00;100055.75;5036541;28;20025;-73
2023/08/02 00:06:52;;;;;;;6.25;2.63;;;;;;;16.34;100.00;100036.44;5036778;28;20041;-73
2023/08/02 00:09:18;;;;;;;6.95;2.38;;;;;;;16.33;100.00;100040.84;5036262;28;20323;-73
2023/08/02 00:11:43;;;;;;;4.00;2.05;;;;;;;16.34;100.00;100044.34;5036914;28;20065;-73
2023/08/02 00:14:10;;;;;;;6.70;2.25;;;;;;;16.33;99.93;100045.31;5036750;28;20345;-73
2023/08/02 00:16:36;;;;;;;4.82;2.20;;;;;;;16.31;100.00;100038.31;5036044;28;20029;-73
2023/08/02 00:19:02;;;;;;;4.05;2.53;;;;;;;16.31;99.96;100048.06;5036594;28;20025;-73
2023/08/02 00:21:28;;;;;;;3.35;1.98;;;;;;;16.30;99.89;100044.59;5036025;28;20029;-73
2023/08/02 00:23:53;;;;;;;5.80;2.55;;;;;;;16.30;99.90;100036.66;5035975;28;20040;-73
2023/08/02 00:26:18;;;;;;;4.95;2.22;;;;;;;16.29;100.00;100042.06;5036675;28;20316;-73
2023/08/02 00:28:44;;;;;;;11.68;2.67;;;;;;;16.28;100.00;100038.59;5036284;28;20033;-73
2023/08/02 00:31:09;;;;;;;11.63;2.80;;;;;;;16.28;100.00;100029.78;5036383;28;20217;-73
2023/08/02 00:33:35;;;;;;;7.25;2.30;;;;;;;16.29;99.89;100034.13;5035503;28;20097;-73
2023/08/02 00:36:00;;;;;;;3.05;2.20;;;;;;;16.27;100.00;100014.91;5036207;28;20037;-73
2023/08/02 00:38:25;;;;;;;5.25;2.50;;;;;;;16.28;100.00;100013.94;5036026;28;20056;-73
2023/08/02 00:40:51;;;;;;;3.92;2.38;;;;;;;16.27;100.00;100014.91;5035874;28;20049;-73
2023/08/02 00:43:16;;;;;;;6.38;2.17;;;;;;;16.27;100.00;100025.47;5036024;28;20071;-73
2023/08/02 00:45:41;;;;;;;3.92;2.83;;;;;;;16.26;100.00;100013.22;5036144;28;20041;-73
2023/08/02 00:48:07;;;;;;;4.35;2.35;;;;;;;16.26;100.00;100018.50;5036259;28;20056;-73
2023/08/02 00:50:35;;;;;;;7.82;2.55;;;;;;;16.27;100.00;100025.47;5035491;28;20061;-73
2023/08/02 00:53:02;;;;;;;4.95;2.30;;;;;;;16.26;100.00;100016.72;5036564;28;20040;-73
2023/08/02 00:55:28;;;;;;;5.63;2.58;;;;;;;16.25;100.00;100015.03;5037830;28;20083;-73
2023/08/02 00:57:53;;;;;;;4.07;2.65;;;;;;;16.25;100.00;100016.84;5040546;28;20041;-73
2023/08/02 01:00:19;;;;;;;4.03;2.50;;;;;;;16.25;100.00;100011.56;5040396;28;20036;-73
2023/08/02 01:02:44;;;;;;;7.63;3.08;;;;;;;16.25;100.00;99995.72;5040602;28;20037;-73
2023/08/02 01:05:10;;;;;;;5.72;2.78;;;;;;;16.24;100.00;99994.84;5040290;28;20038;-73
2023/08/02 01:07:47;;;;;;;6.32;2.60;;;;;;;16.25;100.00;99993.06;5039648;28;20378;-73
2023/08/02 01:10:15;;;;;;;4.97;2.58;;;;;;;16.24;100.00;99992.19;5040029;28;20351;-73
2023/08/02 01:12:45;;;;;;;4.63;2.28;;;;;;;16.25;100.00;99990.41;5021594;28;20104;-73
2023/08/02 01:15:14;;;;;;;3.95;2.15;;;;;;;16.24;100.00;99984.28;5039922;28;20037;-73
2023/08/02 01:17:43;;;;;;;2.92;2.58;;;;;;;16.25;100.00;99977.22;5039352;28;20048;-73
2023/08/02 01:20:09;;;;;;;4.55;2.60;;;;;;;16.24;100.00;99984.28;5039956;28;20049;-73
2023/08/02 01:22:35;;;;;;;3.20;2.17;;;;;;;16.23;100.00;99987.06;5039325;28;20076;-73
2023/08/02 01:25:01;;;;;;;3.15;2.45;;;;;;;16.23;100.00;99987.91;5039632;28;20033;-73
2023/08/02 01:27:52;;;;;;;6.15;2.20;;;;;;;16.24;100.00;99978.16;5039346;28;20049;-73
2023/08/02 01:30:20;;;;;;;3.17;2.10;;;;;;;16.23;100.00;99971.22;5039525;28;20167;-73
2023/08/02 01:32:46;;;;;;;5.50;2.67;;;;;;;16.23;100.00;99976.50;5039385;28;20033;-73
2023/08/02 01:35:11;;;;;;;5.95;2.53;;;;;;;16.23;100.00;99958.84;5039571;28;20108;-73
2023/08/02 01:37:38;;;;;;;6.03;3.10;;;;;;;16.23;100.00;99955.38;5038867;28;20067;-73
2023/08/02 01:40:04;;;;;;;4.18;2.60;;;;;;;16.22;100.00;99954.50;5039790;28;20052;-73
2023/08/02 01:42:29;;;;;;;4.55;2.95;;;;;;;16.22;100.00;99957.13;5039044;28;20290;-73
2023/08/02 01:44:55;;;;;;;4.88;3.00;;;;;;;16.22;100.00;99945.75;5039539;28;20044;-73
2023/08/02 01:47:20;;;;;;;7.47;2.92;;;;;;;16.21;100.00;99934.34;5039021;28;20041;-73
2023/08/02 01:49:46;;;;;;;3.97;2.97;;;;;;;16.21;100.00;99929.06;5039664;28;20048;-73
2023/08/02 01:52:11;;;;;;;5.35;2.63;;;;;;;16.20;100.00;99919.44;5039310;28;20046;-73
2023/08/02 01:54:37;;;;;;;5.90;3.05;;;;;;;16.20;100.00;99916.81;5038993;28;20236;-73
2023/08/02 01:57:02;;;;;;;5.00;2.97;;;;;;;16.19;100.00;99909.84;5038710;28;20236;-73
2023/08/02 01:59:27;;;;;;;5.47;3.00;;;;;;;16.20;100.00;99910.69;5039298;28;20075;-73
2023/08/02 02:01:53;;;;;;;3.72;2.25;;;;;;;16.19;100.00;99899.28;5039051;28;20135;-73
2023/08/02 02:04:19;;;;;;;5.50;2.30;;;;;;;16.19;100.00;99887.88;5038790;28;20048;-73
2023/08/02 02:06:44;;;;;;;4.15;2.63;;;;;;;16.18;100.00;99879.09;5037420;28;20105;-73
2023/08/02 02:09:09;;;;;;;5.68;2.50;;;;;;;16.18;100.00;99880.91;5038723;28;20386;-73
2023/08/02 02:11:35;;;;;;;4.57;2.40;;;;;;;16.16;100.00;99873.09;5038158;28;20042;-73
2023/08/02 02:14:00;;;;;;;5.75;2.53;;;;;;;16.16;100.00;99877.56;5039155;28;20095;-73
2023/08/02 02:16:25;;;;;;;6.70;3.28;;;;;;;16.15;100.00;99860.03;5038196;28;20048;-73
2023/08/02 02:18:51;;;;;;;6.35;2.40;;;;;;;16.14;100.00;99843.34;5038317;28;20060;-73
2023/08/02 02:21:16;;;;;;;4.07;2.45;;;;;;;16.13;100.00;99839.00;5038172;28;20110;-73
2023/08/02 02:23:41;;;;;;;4.50;2.75;;;;;;;16.12;100.00;99835.53;5038550;28;20041;-73
2023/08/02 02:26:07;;;;;;;3.78;2.28;;;;;;;16.12;100.00;99834.69;5038588;28;20033;-73
2023/08/02 02:28:32;;;;;;;6.40;2.40;;;;;;;16.12;100.00;99832.06;5038204;28;20041;-73
2023/08/02 02:30:57;;;;;;;6.70;2.95;;;;;;;16.11;100.00;99819.81;5038332;28;20037;-73
2023/08/02 02:33:23;;;;;;;5.53;3.33;;;;;;;16.10;100.00;99829.53;5038331;28;20040;-73
2023/08/02 02:35:48;;;;;;;7.53;2.40;;;;;;;16.09;100.00;99827.00;5027649;28;20041;-73
2023/08/02 02:38:13;;;;;;;6.22;2.55;;;;;;;16.08;100.00;99827.97;5023645;28;20064;-73
2023/08/02 02:40:39;;;;;;;5.00;2.80;;;;;;;16.07;100.00;99824.50;5034181;28;20236;-74
2023/08/02 02:43:04;;;;;;;7.57;3.13;;;;;;;16.06;100.00;99820.19;5037962;28;20048;-75
2023/08/02 02:45:29;;;;;;;4.82;2.60;;;;;;;16.05;100.00;99813.22;5036634;28;20037;-75
2023/08/02 02:47:55;;;;;;;5.55;2.22;;;;;;;16.05;100.00;99812.38;5037333;28;20075;-75
2023/08/02 02:50:20;;;;;;;2.97;1.92;;;;;;;16.04;100.00;99824.72;5036742;28;20112;-75
2023/08/02 02:52:46;;;;;;;7.32;3.15;;;;;;;16.05;100.00;99822.94;5036833;28;20026;-75
2023/08/02 02:55:11;;;;;;;4.50;2.40;;;;;;;16.03;100.00;99796.66;5037323;28;20037;-75
2023/08/02 02:57:36;;;;;;;3.72;2.60;;;;;;;16.04;100.00;99789.56;5035954;28;20139;-75
2023/08/02 03:00:03;;;;;;;5.28;2.50;;;;;;;16.03;100.00;99779.97;5037465;28;20056;-75
2023/08/02 03:02:28;;;;;;;5.32;2.30;;;;;;;16.03;100.00;99774.69;5036581;28;20037;-75
2023/08/02 03:04:54;;;;;;;6.25;2.40;;;;;;;16.02;100.00;99762.44;5036858;28;20060;-75
2023/08/02 03:07:19;;;;;;;3.17;2.20;;;;;;;16.02;100.00;99750.06;5036325;28;20053;-75
2023/08/02 03:09:45;;;;;;;2.78;2.03;;;;;;;16.03;100.00;99740.38;5036708;28;20037;-75
2023/08/02 03:12:10;;;;;;;6.97;2.78;;;;;;;16.01;100.00;99737.84;5036634;28;20033;-75
2023/08/02 03:14:35;;;;;;;3.70;2.03;;;;;;;16.02;100.00;99741.31;5036153;28;20041;-75
2023/08/02 03:17:01;;;;;;;9.15;3.10;;;;;;;16.02;100.00;99733.41;5036625;28;20036;-75
2023/08/02 03:19:26;;;;;;;7.03;2.67;;;;;;;16.00;100.00;99715.03;5035952;28;20061;-75
2023/08/02 03:21:52;;;;;;;4.57;2.67;;;;;;;16.01;100.00;99718.50;5036179;28;20072;-75
2023/08/02 03:24:17;;;;;;;3.65;2.17;;;;;;;16.00;100.00;99707.09;5036064;28;20029;-75
2023/08/02 03:26:42;;;;;;;4.15;2.67;;;;;;;16.00;100.00;99716.84;5036195;28;20392;-75
2023/08/02 03:29:08;;;;;;;5.60;2.65;;;;;;;15.99;100.00;99713.38;5036309;28;20235;-75
2023/08/02 03:31:33;;;;;;;7.28;2.80;;;;;;;15.99;100.00;99713.38;5035798;28;20075;-75
2023/08/02 03:33:59;;;;;;;4.97;2.50;;;;;;;15.98;100.00;99695.84;5036277;28;20096;-75
2023/08/02 03:36:24;;;;;;;4.18;2.67;;;;;;;15.99;100.00;99702.81;5035959;28;20025;-75
2023/08/02 03:38:50;;;;;;;4.07;2.70;;;;;;;15.99;100.00;99696.66;5036052;28;20127;-75
2023/08/02 03:41:15;;;;;;;6.93;2.78;;;;;;;15.98;100.00;99687.91;5036100;28;20041;-75
2023/08/02 03:43:40;;;;;;;6.95;2.90;;;;;;;15.99;100.00;99686.09;5035735;28;20500;-75
2023/08/02 03:46:06;;;;;;;9.73;4.00;;;;;;;15.98;100.00;99674.72;5035927;28;20037;-75
2023/08/02 03:48:31;;;;;;;4.78;3.10;;;;;;;15.97;100.00;99678.34;5035751;28;20032;-75
2023/08/02 03:50:58;;;;;;;8.02;3.65;;;;;;;15.97;100.00;99675.69;5035886;28;20021;-75
2023/08/02 03:53:27;;;;;;;7.60;3.83;;;;;;;15.98;100.00;99668.59;5035563;28;20041;-75
2023/08/02 03:55:52;;;;;;;9.25;5.20;;;;;;;15.97;100.00;99654.56;5035719;28;20033;-75
2023/08/02 03:58:20;;;;;;;13.93;6.03;;;;;;;15.97;100.00;99654.56;5035529;28;20045;-75
2023/08/02 04:00:45;;;;;;;7.38;4.75;;;;;;;15.95;100.00;99643.28;5035757;28;20040;-75
2023/08/02 04:03:10;;;;;;;6.15;4.93;;;;;;;15.96;100.00;99644.97;5035986;28;20430;-75
2023/08/02 04:05:36;;;;;;;7.55;5.07;;;;;;;15.95;100.00;99640.63;5035021;28;20065;-75
2023/08/02 04:08:02;;;;;;;5.05;4.35;;;;;;;15.96;100.00;99636.22;5035380;28;20053;-75
2023/08/02 04:10:27;;;;;;;7.78;4.95;;;;;;;15.96;100.00;99628.28;5035423;28;20136;-75
2023/08/02 04:12:52;;;;;;;7.40;4.97;;;;;;;15.93;100.00;99621.44;5035526;28;20041;-75
2023/08/02 04:15:18;;;;;;;6.65;4.22;;;;;;;15.95;100.00;99616.03;5035250;28;20037;-75
2023/08/02 04:17:43;;;;;;;7.50;4.18;;;;;;;15.94;100.00;99612.56;5035166;28;20230;-75
2023/08/02 04:20:09;;;;;;;7.45;4.43;;;;;;;15.93;100.00;99598.53;5035655;28;20037;-75
2023/08/02 04:22:35;;;;;;;5.32;3.58;;;;;;;15.92;100.00;99596.84;5034771;28;20037;-75
2023/08/02 04:25:01;;;;;;;3.42;3.05;;;;;;;15.92;100.00;99590.75;5035505;28;20255;-75
2023/08/02 04:27:26;;;;;;;3.75;2.92;;;;;;;15.92;100.00;99580.19;5034906;28;20056;-75
2023/08/02 04:29:52;;;;;;;6.78;3.30;;;;;;;15.92;100.00;99580.19;5034208;28;20052;-75
2023/08/02 04:32:17;;;;;;;4.20;2.65;;;;;;;15.92;100.00;99567.81;5034736;28;20354;-75
2023/08/02 04:34:42;;;;;;;6.07;3.08;;;;;;;15.91;100.00;99557.38;5035120;28;20078;-75
2023/08/02 04:37:08;;;;;;;5.85;3.20;;;;;;;15.91;100.00;99547.63;5035342;28;20101;-75
2023/08/02 04:39:33;;;;;;;6.18;2.97;;;;;;;15.91;100.00;99546.81;5034711;28;20223;-75
2023/08/02 04:42:02;;;;;;;4.50;2.80;;;;;;;15.90;100.00;99530.13;5035420;28;20029;-75
2023/08/02 04:44:28;;;;;;;2.80;2.50;;;;;;;15.89;100.00;99520.53;5034719;28;20131;-75
2023/08/02 04:46:53;;;;;;;3.92;2.40;;;;;;;15.90;100.00;99516.13;5035434;28;20331;-75
2023/08/02 04:49:19;;;;;;;5.13;2.65;;;;;;;15.90;100.00;99516.13;5034826;28;20033;-75
2023/08/02 04:51:44;;;;;;;4.80;2.70;;;;;;;15.90;100.00;99511.66;5034816;28;20124;-75
2023/08/02 04:54:10;;;;;;;2.58;2.35;;;;;;;15.89;100.00;99507.34;5035226;28;20040;-75
2023/08/02 04:56:35;;;;;;;3.10;2.40;;;;;;;15.90;100.00;99498.47;5034431;28;20037;-75
2023/08/02 04:59:00;;;;;;;3.38;2.60;;;;;;;15.89;100.00;99501.22;5035112;28;20126;-75
2023/08/02 05:01:26;;;;;;;4.28;2.75;;;;;;;15.89;100.00;99480.94;5034683;28;20056;-75
2023/08/02 05:03:52;;;;;;;2.70;2.50;;;;;;;15.88;100.00;99471.34;5035035;28;20072;-75
2023/08/02 05:06:18;;;;;;;2.92;2.70;;;;;;;15.88;100.00;99463.44;5034407;28;20037;-75
2023/08/02 05:08:43;;;;;;;3.90;2.75;;;;;;;15.90;100.00;99450.13;5034678;28;20037;-75
2023/08/02 05:11:08;;;;;;;4.45;2.83;;;;;;;15.88;100.00;99433.53;5034881;28;20048;-75
2023/08/02 05:13:34;;;;;;;2.83;2.60;;;;;;;15.88;100.00;99430.91;5034297;28;20057;-75
2023/08/02 05:16:00;;;;;;;3.47;2.45;;;;;;;15.89;100.00;99435.22;5035027;28;20059;-75
2023/08/02 05:18:26;;;;;;;6.65;2.70;;;;;;;15.87;100.00;99422.16;5034713;28;20388;-75
2023/08/02 05:20:53;;;;;;;3.70;3.03;;;;;;;15.86;100.00;99428.41;5034640;28;20053;-75
2023/08/02 05:23:18;;;;;;;3.40;2.58;;;;;;;15.86;100.00;99415.22;5034533;28;20044;-75
2023/08/02 05:25:43;;;;;;;4.45;3.05;;;;;;;15.86;100.00;99412.56;5034949;28;20227;-75
2023/08/02 05:28:09;;;;;;;4.50;2.80;;;;;;;15.86;100.00;99399.38;5035153;28;20075;-75
2023/08/02 05:30:36;;;;;;;4.63;2.70;;;;;;;15.85;100.00;99395.06;5016642;28;20256;-75
2023/08/02 05:33:02;;;;;;;3.03;2.83;;;;;;;15.84;100.00;99401.28;5035048;28;20048;-75
2023/08/02 05:35:29;;;;;;;5.38;3.65;;;;;;;15.85;100.00;99405.63;5033893;28;20029;-75
2023/08/02 05:37:55;;;;;;;4.95;2.65;;;;;;;15.83;100.00;99386.44;5034145;28;20083;-75
2023/08/02 05:40:21;;;;;;;4.60;3.40;;;;;;;15.84;100.00;99384.63;5034258;28;20037;-75
2023/08/02 05:42:48;;;;;;;4.10;3.15;;;;;;;15.83;100.00;99378.50;5038454;28;20253;-75
2023/08/02 05:45:13;;;;;;;2.92;2.72;;;;;;;15.84;100.00;99376.69;5038468;28;20036;-75
2023/08/02 05:47:39;;;;;;;3.20;2.90;;;;;;;15.83;100.00;99373.22;5038264;28;20041;-75
2023/08/02 05:50:05;;;;;;;2.65;2.45;;;;;;;15.84;100.00;99376.69;5038321;28;20101;-75
2023/08/02 05:52:30;;;;;;;3.58;2.83;;;;;;;15.84;100.00;99356.41;5037927;28;20044;-75
2023/08/02 05:54:56;;;;;;;2.60;2.20;;;;;;;15.84;100.00;99345.84;5038273;28;20379;-75
2023/08/02 05:57:21;;;;;;;2.78;2.58;;;;;;;15.83;100.00;99335.44;5037356;28;20350;-74
2023/08/02 05:59:50;;;;;;;2.58;2.38;;;;;;;15.84;100.00;99342.38;5037764;28;20041;-75
2023/08/02 06:02:15;;;;;;;;;;;;;;;15.84;100.00;99329.19;5038418;28;20039;-75
2023/08/02 06:04:43;;;;;;;3.17;2.30;;;;;;;15.84;100.00;99329.19;5037456;28;19975;-75
2023/08/02 06:07:08;;;;;;;3.10;2.80;;;;;;;15.83;100.00;99330.19;5037798;28;20354;-75
2023/08/02 06:09:34;;;;;;;2.70;2.28;;;;;;;15.83;100.00;99316.97;5037349;28;20064;-75
2023/08/02 06:11:59;;;;;;;2.17;2.00;;;;;;;15.82;100.00;99313.47;5037935;28;20343;-75
2023/08/02 06:14:25;;;;;;;3.65;2.70;;;;;;;15.82;100.00;99305.56;5037376;28;20033;-75
2023/08/02 06:16:51;;;;;;;2.05;1.80;;;;;;;15.83;100.00;99290.59;5037840;28;20053;-75
2023/08/02 06:19:16;;;;;;;2.88;2.50;;;;;;;15.82;100.00;99287.09;5037447;28;20364;-75
2023/08/02 06:21:41;;;;;;;1.90;1.80;;;;;;;15.81;100.00;99266.94;5037356;28;20048;-75
2023/08/02 06:24:07;;;;;;;1.90;1.80;;;;;;;15.81;100.00;99264.31;5037791;28;20088;-75
2023/08/02 06:26:32;;;;;;;2.13;2.00;;;;;;;15.82;100.00;99255.41;5037000;28;20053;-75
2023/08/02 06:28:58;;;;;;;2.20;1.77;;;;;;;15.81;100.00;99248.47;5037621;28;20036;-75
2023/08/02 06:31:24;;;;;;;1.67;1.38;;;;;;;15.82;100.00;99242.22;5037097;28;20041;-75
2023/08/02 06:33:49;;;;;;;1.13;1.10;;;;;;;15.82;100.00;99239.56;5037160;28;20037;-75
2023/08/02 06:36:14;;;;;;;1.60;1.30;;;;;;;15.82;100.00;99242.22;5037264;28;20033;-75
2023/08/02 06:38:40;;;;;;;4.47;1.50;;;;;;;15.82;100.00;99229.00;5036868;28;20371;-75
2023/08/02 06:41:05;;;;;;;4.65;1.63;;;;;;;15.83;100.00;99230.69;5037057;28;20120;-75
2023/08/02 06:43:31;;;;;;;1.80;1.50;;;;;;;15.85;100.00;99230.56;5036709;28;20068;-75
2023/08/02 06:45:57;;;;;;;1.42;1.33;;;;;;;15.84;100.00;99223.59;5037147;28;20404;-75
2023/08/02 06:48:23;;;;;;;1.48;1.20;;;;;;;15.85;100.00;99212.09;5036903;28;20033;-75
2023/08/02 06:50:49;;;;;;;0.98;0.98;;;;;;;15.85;100.00;99205.00;5037142;28;20136;-75
2023/08/02 06:53:15;;;;;;;1.45;0.95;;;;;;;15.86;100.00;99196.13;5036522;28;20049;-75
2023/08/02 06:55:40;;;;;;;2.15;1.00;;;;;;;15.87;100.00;99187.22;5036628;28;20033;-75
2023/08/02 06:58:05;;;;;;;1.10;1.00;;;;;;;15.87;100.00;99181.94;5036722;28;20063;-76
2023/08/02 07:00:32;;;;;;;1.30;1.13;;;;;;;15.87;100.00;99160.00;5036224;28;20209;-76
2023/08/02 07:03:07;;;;;;;1.98;1.08;;;;;;;15.86;100.00;99167.09;5037107;28;20037;-76
2023/08/02 07:05:34;;;;;;;1.58;1.00;;;;;;;15.87;100.00;99155.53;5035996;28;20037;-76
2023/08/02 07:08:00;;;;;;;0.90;0.90;;;;;;;15.87;100.00;99147.63;5036244;28;20049;-76
2023/08/02 07:10:27;;;;;;;1.98;1.00;;;;;;;15.89;100.00;99143.03;5036164;28;20041;-76
2023/08/02 07:12:53;;;;;;;1.08;0.98;;;;;;;15.90;100.00;99135.97;5036486;28;20037;-76
2023/08/02 07:15:19;;;;;;;2.25;1.08;;;;;;;15.91;100.00;99132.34;5036306;28;20037;-76
2023/08/02 07:17:45;;;;;;;2.40;0.98;;;;;;;15.91;100.00;99121.78;5035980;28;20083;-76
2023/08/02 07:20:12;;;;;;;1.10;1.00;;;;;;;15.91;100.00;99109.41;5036080;28;20091;-76
2023/08/02 07:22:39;;;;;;;1.60;1.02;;;;;;;15.94;100.00;99100.38;5036151;28;20040;-76
2023/08/02 07:25:04;;;;;;;0.98;0.80;;;;;;;15.95;100.00;99095.94;5036430;28;20064;-76
2023/08/02 07:27:30;;;;;;;1.17;0.82;;;;;;;15.95;100.00;99094.13;5036093;28;20033;-76
2023/08/02 07:29:56;;;;;;;3.75;0.63;;;;;;;15.96;100.00;99084.41;5036580;28;20033;-76
2023/08/02 07:32:22;;;;;;;1.38;0.80;;;;;;;15.97;100.00;99086.91;5035882;28;20124;-76
2023/08/02 07:34:47;;;;;;;0.60;0.60;;;;;;;15.97;100.00;99092.19;5036063;28;20079;-76
2023/08/02 07:37:13;;;;;;;1.95;0.60;;;;;;;15.99;100.00;99089.41;5036153;28;20446;-76
2023/08/02 07:39:40;;;;;;;0.77;0.60;;;;;;;16.00;100.00;99093.72;5035535;28;20033;-76
2023/08/02 07:42:09;;;;;;;0.70;0.60;;;;;;;15.99;100.00;99079.69;5036241;28;20028;-76
2023/08/02 07:44:35;;;;;;;1.02;0.70;;;;;;;15.99;100.00;99079.69;5035878;28;20324;-76
2023/08/02 07:47:00;;;;;;;0.63;0.60;;;;;;;16.01;100.00;99066.31;5036272;28;20372;-76
2023/08/02 07:49:26;;;;;;;1.10;0.93;;;;;;;16.01;100.00;99068.97;5036052;28;20040;-76
2023/08/02 07:51:51;;;;;;;1.10;0.93;;;;;;;16.02;100.00;99074.09;5035551;28;20097;-76
2023/08/02 07:54:16;;;;;;;2.15;0.85;;;;;;;16.02;100.00;99068.81;5035537;28;20044;-76
2023/08/02 07:56:42;;;;;;;0.80;0.70;;;;;;;16.03;100.00;99069.69;5018023;28;20033;-76
2023/08/02 07:59:07;;;;;;;2.33;0.75;;;;;;;16.04;100.00;99072.16;5035769;28;20098;-76
2023/08/02 08:01:33;;;;;;;0.60;0.60;;;;;;;16.05;100.00;99071.19;5035316;28;20033;-76
2023/08/02 08:03:58;;;;;;;0.60;0.60;;;;;;;16.06;100.00;99061.47;5035498;28;20279;-76
2023/08/02 08:06:25;;;;;;;0.70;0.70;;;;;;;16.07;100.00;99049.94;5034584;28;20328;-76
2023/08/02 08:08:50;;;;;;;1.42;0.80;;;;;;;16.07;100.00;99045.47;5035453;28;20402;-76
2023/08/02 08:11:16;;;;;;;0.85;0.60;;;;;;;16.10;100.00;99039.09;5035565;28;20045;-76
2023/08/02 08:13:41;;;;;;;0.60;0.60;;;;;;;16.11;100.00;99046.03;5035701;28;20048;-76
2023/08/02 08:16:07;;;;;;;0.60;0.60;;;;;;;16.12;100.00;99040.59;5017598;28;20032;-76
2023/08/02 08:18:33;;;;;;;0.60;0.60;;;;;;;16.14;100.00;99031.72;5017227;28;20028;-76
2023/08/02 08:21:03;;;;;;;0.82;0.52;;;;;;;16.15;100.00;99022.81;5035467;28;20017;-76
2023/08/02 08:23:30;;;;;;;0.60;0.60;;;;;;;16.17;100.00;99012.94;5035274;28;20029;-76
2023/08/02 08:25:55;;;;;;;0.70;0.70;;;;;;;16.18;100.00;99019.91;5035365;28;20073;-76
2023/08/02 08:28:22;;;;;;;0.60;0.57;;;;;;;16.21;100.00;99025.72;5035461;28;20037;-76
2023/08/02 08:30:47;;;;;;;0.70;0.70;;;;;;;16.23;100.00;99010.56;5017723;28;20038;-76
2023/08/02 08:33:13;;;;;;;0.70;0.70;;;;;;;16.27;100.00;99003.19;5035392;28;20412;-76
2023/08/02 08:35:38;;;;;;;0.60;0.60;;;;;;;16.28;100.00;98997.78;5034779;28;20223;-75
2023/08/02 08:38:03;;;;;;;0.70;0.70;;;;;;;16.33;100.00;98991.22;5035698;28;20037;-75
2023/08/02 08:40:29;;;;;;;1.00;0.60;;;;;;;16.35;100.00;98983.97;5035235;28;20034;-75
2023/08/02 08:42:56;;;;;;;1.95;0.65;;;;;;;16.38;100.00;98981.88;5035337;28;20064;-75
2023/08/02 08:45:23;;;;;;;1.15;0.60;;;;;;;16.42;100.00;98974.50;5034855;28;20029;-75
2023/08/02 08:47:50;;;;;;;0.55;0.55;;;;;;;16.46;100.00;98981.16;5035068;28;20029;-75
2023/08/02 08:50:17;;;;;;;1.05;0.95;;;;;;;16.49;100.00;98988.78;5035060;28;20104;-75
2023/08/02 08:52:46;;;;;;;0.63;0.63;;;;;;;16.52;100.00;98980.59;5035262;28;20041;-75
2023/08/02 08:55:16;;;;;;;0.90;0.90;;;;;;;16.54;100.00;98980.44;5035447;28;20343;-75
2023/08/02 08:57:43;;;;;;;1.55;1.00;;;;;;;16.57;100.00;98986.25;5034784;28;20084;-75
2023/08/02 09:00:10;;;;;;;1.75;0.98;;;;;;;16.59;100.00;98988.75;5035610;28;20101;-75
2023/08/02 09:02:39;;;;;;;1.00;1.00;;;;;;;16.61;100.00;98987.63;5034599;28;20026;-75
2023/08/02 09:05:05;;;;;;;2.30;1.40;;;;;;;16.63;100.00;98979.56;5034917;28;20221;-75
2023/08/02 09:07:31;;;;;;;1.20;1.17;;;;;;;16.66;100.00;98974.81;5034200;28;20049;-75
2023/08/02 09:09:57;;;;;;;2.47;1.10;;;;;;;16.69;100.00;98968.38;5034895;28;20308;-75
2023/08/02 09:12:26;;;;;;;1.38;1.30;;;;;;;16.70;100.00;98964.78;5034655;28;20033;-75
2023/08/02 09:14:59;;;;;;;2.10;1.20;;;;;;;16.73;100.00;98959.19;5034635;28;20071;-75
2023/08/02 09:17:25;;;;;;;2.63;1.08;;;;;;;16.76;100.00;98956.25;5038058;28;20045;-75
2023/08/02 09:19:50;;;;;;;1.10;1.10;;;;;;;16.78;100.00;98945.53;5039064;28;20100;-75
2023/08/02 09:22:16;;;;;;;1.10;1.10;;;;;;;16.82;100.00;98947.72;5038648;28;20033;-75
2023/08/02 09:24:44;;;;;;;1.60;1.50;;;;;;;16.85;100.00;98947.47;5038592;28;20079;-75
2023/08/02 09:27:15;;;;;;;1.60;1.50;;;;;;;16.91;100.00;98948.66;5038636;28;20025;-75
2023/08/02 09:29:49;;;;;;;1.95;1.50;;;;;;;16.95;100.00;98950.03;5038215;28;20037;-75
2023/08/02 09:32:18;;;;;;;1.70;1.60;;;;;;;16.98;100.00;98957.66;5038717;28;20100;-75
2023/08/02 09:34:49;;;;;;;3.90;1.63;;;;;;;17.02;100.00;98950.28;5038280;28;20033;-75
2023/08/02 09:37:16;;;;;;;3.22;1.42;;;;;;;17.06;100.00;98954.28;5038436;28;20037;-75
2023/08/02 09:39:51;;;;;;;2.58;1.45;;;;;;;17.09;100.00;98943.41;5038324;28;20056;-75
2023/08/02 09:42:17;;;;;;;1.52;1.20;;;;;;;17.09;100.00;98948.69;5038160;28;20057;-75
2023/08/02 09:44:57;;;;;;;1.80;1.10;;;;;;;17.10;100.00;98950.38;5038166;28;20065;-75
2023/08/02 09:47:23;;;;;;;2.85;1.75;;;;;;;17.13;100.00;98963.28;5037869;28;20033;-75
2023/08/02 09:50:08;;;;;;;2.78;1.73;;;;;;;17.17;100.00;98971.75;5038406;28;20084;-75
2023/08/02 09:52:35;;;;;;;4.22;1.88;;;;;;;17.16;100.00;98965.63;5037894;28;20370;-75
2023/08/02 09:55:00;;;;;;;2.78;1.50;;;;;;;17.18;100.00;98962.84;5038503;28;20096;-75
2023/08/02 09:57:28;;;;;;;1.75;1.50;;;;;;;17.18;100.00;98953.06;5037786;28;20045;-75
2023/08/02 10:00:04;;;;;;;3.60;2.08;;;;;;;17.19;100.00;98959.19;5038198;28;20228;-76
2023/08/02 10:02:30;;;;;;;2.80;1.88;;;;;;;17.21;100.00;98952.78;5037932;28;20289;-76
2023/08/02 10:04:57;;;;;;;6.30;2.00;;;;;;;17.23;100.00;98945.53;5038370;28;20053;-76
2023/08/02 10:07:31;;;;;;;3.88;1.98;;;;;;;17.26;100.00;98962.91;5037446;28;20280;-76
2023/08/02 10:10:03;;;;;;;4.80;1.92;;;;;;;17.26;100.00;98953.16;5037797;28;20040;-76
2023/08/02 10:12:29;;;;;;;7.32;2.40;;;;;;;17.29;100.00;98956.50;5037486;28;20336;-76
2023/08/02 10:14:57;;;;;;;3.97;1.90;;;;;;;17.32;100.00;98956.16;5037704;28;20110;-76
2023/08/02 10:17:25;;;;;;;9.73;2.88;;;;;;;17.33;100.00;98942.78;5037772;28;20045;-76
2023/08/02 10:19:51;;;;;;;5.47;2.20;;;;;;;17.37;100.00;98943.31;5037547;28;20037;-75
2023/08/02 10:22:18;;;;;;;5.80;2.15;;;;;;;17.39;100.00;98938.69;5037380;28;20037;-76
2023/08/02 10:24:45;;;;;;;5.97;2.30;;;;;;;17.43;100.00;98961.25;5037300;28;20237;-75
2023/08/02 10:27:12;;;;;;;8.18;3.35;;;;;;;17.44;100.00;98920.56;5036860;28;20040;-75
2023/08/02 10:29:39;;;;;;;6.18;2.05;;;;;;;17.49;100.00;98942.09;5037006;28;20045;-76
2023/08/02 10:32:15;;;;;;;12.50;2.60;;;;;;;17.53;100.00;98934.69;5037379;28;20113;-76
2023/08/02 10:34:40;;;;;;;12.07;2.60;;;;;;;17.55;100.00;98938.00;5036930;28;20375;-76
2023/08/02 10:37:06;;;;;;;7.70;2.30;;;;;;;17.55;100.00;98941.47;5037588;28;20033;-76
2023/08/02 10:39:50;;;;;;;8.00;2.13;;;;;;;17.56;100.00;98934.41;5037275;28;20354;-76
2023/08/02 10:42:29;;;;;;;7.97;2.65;;;;;;;17.55;100.00;98922.97;5037395;28;20037;-75
2023/08/02 10:44:54;;;;;;;;;;;;;;;17.57;100.00;98917.50;5037976;28;20230;-75
2023/08/02 10:47:38;;;;;;;7.32;2.15;;;;;;;17.58;100.00;98920.00;5037463;28;20254;-75
2023/08/02 10:50:04;;;;;;;7.05;2.17;;;;;;;17.59;100.00;98912.91;5037419;28;20343;-75
2023/08/02 10:52:34;;;;;;;4.97;1.85;;;;;;;17.61;100.00;98903.00;5036867;28;20427;-76
2023/08/02 10:55:11;;;;;;;10.32;2.30;;;;;;;17.63;100.00;98907.16;5037328;28;20045;-76
2023/08/02 10:57:39;;;;;;;8.60;2.75;;;;;;;17.67;100.00;98905.03;5036584;28;20033;-76
2023/08/02 11:00:16;;;;;;;6.20;1.52;;;;;;;17.69;100.00;98904.88;5037028;28;20075;-76
2023/08/02 11:02:47;;;;;;;5.55;1.58;;;;;;;17.70;100.00;98914.47;5036641;28;20033;-76
2023/08/02 11:05:15;;;;;;;7.82;1.48;;;;;;;17.71;100.00;98911.66;5036817;28;20041;-76
2023/08/02 11:07:41;;;;;;;10.35;1.15;;;;;;;17.73;100.00;98919.44;5036041;28;20049;-76
2023/08/02 11:10:06;;;;;;;9.50;1.70;;;;;;;17.74;100.00;98914.00;5036776;28;20352;-76
2023/08/02 11:12:33;;;;;;;10.50;1.88;;;;;;;17.75;100.00;98918.31;5036281;28;20087;-76
2023/08/02 11:14:59;;;;;;;4.28;1.17;;;;;;;17.76;100.00;98917.31;5036677;28;20516;-76
2023/08/02 11:17:25;;;;;;;7.53;1.58;;;;;;;17.77;100.00;98926.94;5036179;28;20057;-76
2023/08/02 11:19:53;;;;;;;6.22;1.85;;;;;;;17.77;100.00;98924.31;5036563;28;20052;-76
2023/08/02 11:22:18;;;;;;;5.70;1.13;;;;;;;17.78;100.00;98907.41;5036074;28;20114;-76